Time;durP1;ratioP1;P1;durP2;ratioP2;P2;SDS_P1;SDS_P2;PMS_P1;PMS_P2;Temp;Humidity;BMP_temperature;BMP_pressure;BME280_temperature;BME280_humidity;BME280_pressure;Samples;Min_cycle;Max_cycle;Signal;HPM_P1;HPM_P2
2024/02/26 00:00:46;;;;;;;2.43;2.23;;;;;;;7.60;73.78;153312.50;5110296;28;20468;-87
2024/02/26 00:03:14;;;;;;;2.03;1.80;;;;;;;7.65;72.67;153324.16;5125806;27;20517;-86
2024/02/26 00:05:41;;;;;;;3.13;2.50;;;;;;;7.62;74.04;153317.69;5092121;28;20444;-86
2024/02/26 00:08:07;;;;;;;2.53;1.97;;;;;;;7.59;74.65;153309.94;5099231;28;20468;-85
2024/02/26 00:10:34;;;;;;;2.17;1.70;;;;;;;7.56;74.63;153300.88;5125953;27;20434;-86
2024/02/26 00:13:00;;;;;;;2.57;1.87;;;;;;;7.57;72.92;153303.47;5108579;28;20440;-86
2024/02/26 00:15:27;;;;;;;3.10;2.27;;;;;;;7.59;73.67;153308.63;5097213;28;21019;-86
2024/02/26 00:17:54;;;;;;;2.63;2.30;;;;;;;7.56;73.87;153300.88;5096631;28;20452;-86
2024/02/26 00:20:22;;;;;;;2.80;2.10;;;;;;;7.57;74.43;153303.47;5100897;28;20435;-86
2024/02/26 00:22:48;;;;;;;2.20;2.00;;;;;;;7.54;73.58;153297.03;5106561;28;20443;-86
2024/02/26 00:25:15;;;;;;;2.50;2.00;;;;;;;7.53;73.60;153293.13;5097312;28;20432;-86
2024/02/26 00:27:43;;;;;;;3.10;2.40;;;;;;;7.54;75.27;153295.72;5109645;28;20482;-86
2024/02/26 00:30:11;;;;;;;2.53;2.07;;;;;;;7.49;74.29;153284.13;5109270;28;20436;-86
2024/02/26 00:32:38;;;;;;;2.40;2.00;;;;;;;7.46;73.89;153275.06;5109754;28;20505;-86
2024/02/26 00:35:05;;;;;;;3.37;2.53;;;;;;;7.48;74.63;153280.22;5077286;28;20436;-86
2024/02/26 00:37:33;;;;;;;2.70;2.50;;;;;;;7.44;75.51;153271.16;5114359;28;20500;-85
2024/02/26 00:40:00;;;;;;;2.70;2.30;;;;;;;7.42;74.30;153264.69;5113952;28;20438;-85
2024/02/26 00:42:26;;;;;;;2.80;2.47;;;;;;;7.41;74.54;153263.44;5095023;28;21042;-86
2024/02/26 00:44:53;;;;;;;3.20;2.00;;;;;;;7.42;73.67;153266.00;5113686;28;20874;-86
2024/02/26 00:47:19;;;;;;;2.90;2.60;;;;;;;7.44;74.06;153269.91;5095333;28;20486;-86
2024/02/26 00:49:46;;;;;;;2.70;2.33;;;;;;;7.43;74.08;153268.59;5078790;28;20432;-87
2024/02/26 00:52:12;;;;;;;2.50;2.20;;;;;;;7.44;76.03;153271.16;5109528;28;20456;-86
2024/02/26 00:54:40;;;;;;;3.13;2.23;;;;;;;7.44;74.81;153269.91;5112710;28;20428;-86
2024/02/26 00:57:07;;;;;;;2.13;1.80;;;;;;;7.45;76.32;153272.47;5112768;28;21232;-86
2024/02/26 00:59:34;;;;;;;2.90;2.23;;;;;;;7.46;77.18;153275.06;5113164;28;20436;-86
2024/02/26 01:02:02;;;;;;;2.50;2.17;;;;;;;7.43;77.18;153268.59;5112625;28;20440;-85
2024/02/26 01:04:28;;;;;;;2.30;2.10;;;;;;;7.44;76.64;153269.91;5110101;28;20472;-86
2024/02/26 01:06:55;;;;;;;4.13;2.37;;;;;;;7.41;75.48;153262.16;5113740;28;20447;-86
2024/02/26 01:09:21;;;;;;;5.20;2.83;;;;;;;7.42;73.72;153264.69;5112104;28;20460;-87
2024/02/26 01:11:49;;;;;;;3.30;2.50;;;;;;;7.46;72.75;153275.06;5087168;27;20442;-84
2024/02/26 01:14:16;;;;;;;3.10;2.67;;;;;;;7.51;77.56;153287.97;5113522;27;20485;-85
2024/02/26 01:16:42;;;;;;;2.60;2.30;;;;;;;7.47;78.96;153277.63;5114661;27;20447;-85
2024/02/26 01:19:09;;;;;;;3.50;2.57;;;;;;;7.46;80.36;153275.06;5080390;28;20448;-85
2024/02/26 01:21:35;;;;;;;2.70;2.27;;;;;;;7.40;80.05;153259.53;5120278;27;20458;-85
2024/02/26 01:24:02;;;;;;;3.80;2.20;;;;;;;7.39;74.53;153257.00;5115476;27;20447;-86
2024/02/26 01:26:28;;;;;;;2.80;2.23;;;;;;;7.40;74.30;153260.84;5114586;27;20457;-86
2024/02/26 01:28:56;;;;;;;2.50;2.10;;;;;;;7.41;71.96;153262.16;5112739;28;20464;-86
2024/02/26 01:31:22;;;;;;;2.10;1.60;;;;;;;7.43;72.03;153268.59;5102529;28;20455;-85
2024/02/26 01:33:49;;;;;;;2.67;2.23;;;;;;;7.44;74.28;153269.91;5078619;28;20445;-85
2024/02/26 01:36:15;;;;;;;2.50;2.20;;;;;;;7.43;75.44;153268.59;5095437;28;20440;-86
2024/02/26 01:38:42;;;;;;;2.70;2.27;;;;;;;7.41;76.75;153262.16;5106930;28;20459;-85
2024/02/26 01:41:09;;;;;;;2.40;2.20;;;;;;;7.38;75.94;153255.69;5080768;28;20457;-84
2024/02/26 01:43:35;;;;;;;2.10;1.90;;;;;;;7.35;73.72;153249.25;5106778;28;20429;-85
2024/02/26 01:46:04;;;;;;;2.10;1.70;;;;;;;7.38;74.05;153254.41;5107251;27;20428;-85
2024/02/26 01:48:31;;;;;;;2.80;2.23;;;;;;;7.39;74.20;153257.00;5103483;28;20459;-85
2024/02/26 01:50:58;;;;;;;2.90;2.63;;;;;;;7.43;77.60;153267.31;5111261;27;20833;-85
2024/02/26 01:53:25;;;;;;;2.40;2.10;;;;;;;7.40;79.47;153259.53;5089900;28;20490;-84
2024/02/26 01:55:51;;;;;;;4.60;2.60;;;;;;;7.38;80.98;153255.69;5094379;28;20853;-85
2024/02/26 01:58:18;;;;;;;3.67;2.53;;;;;;;7.32;82.01;153240.19;5111892;28;20444;-86
2024/02/26 02:00:44;;;;;;;3.33;2.63;;;;;;;7.28;81.10;153231.13;5112287;28;20540;-85
2024/02/26 02:03:12;;;;;;;3.00;2.23;;;;;;;7.28;82.20;153231.13;5112961;28;20439;-85
2024/02/26 02:05:41;;;;;;;3.03;2.27;;;;;;;7.28;82.16;153231.13;5112912;28;20481;-86
2024/02/26 02:08:08;;;;;;;2.80;2.60;;;;;;;7.29;83.68;153233.72;5088391;28;20594;-86
2024/02/26 02:10:35;;;;;;;4.87;2.87;;;;;;;7.26;84.54;153225.97;5112526;28;20492;-86
2024/02/26 02:13:02;;;;;;;3.00;2.60;;;;;;;7.27;85.05;153228.56;5110649;28;20457;-85
2024/02/26 02:15:28;;;;;;;2.73;2.30;;;;;;;7.22;83.09;153215.66;5101972;28;20532;-85
2024/02/26 02:17:55;;;;;;;3.03;2.60;;;;;;;7.22;82.63;153215.66;5093479;28;20452;-85
2024/02/26 02:20:27;;;;;;;2.77;2.57;;;;;;;7.19;81.69;153207.91;5114094;27;20493;-86
2024/02/26 02:22:53;;;;;;;3.50;2.10;;;;;;;7.25;83.80;153222.13;5088094;28;20483;-86
2024/02/26 02:25:20;;;;;;;2.93;2.37;;;;;;;7.24;85.84;153219.53;5076705;28;20445;-86
2024/02/26 02:27:46;;;;;;;3.40;2.03;;;;;;;7.19;86.34;153207.91;5111554;28;20486;-85
2024/02/26 02:30:15;;;;;;;2.80;1.80;;;;;;;7.14;85.07;153195.00;5111125;28;20457;-86
2024/02/26 02:32:42;;;;;;;1.93;1.60;;;;;;;7.14;80.48;153195.00;5102205;28;20442;-86
2024/02/26 02:35:09;;;;;;;1.80;1.47;;;;;;;7.18;80.19;153205.31;5111336;28;20444;-86
2024/02/26 02:37:37;;;;;;;2.80;1.60;;;;;;;7.23;80.55;153218.22;5123412;27;21747;-86
2024/02/26 02:40:05;;;;;;;4.50;1.63;;;;;;;7.19;74.26;153207.91;5093959;28;20424;-87
2024/02/26 02:42:31;;;;;;;1.27;1.03;;;;;;;7.53;72.21;153293.13;5093510;28;20445;-86
2024/02/26 02:44:58;;;;;;;1.27;0.93;;;;;;;7.72;70.03;153342.22;5110474;27;20448;-85
2024/02/26 02:47:24;;;;;;;1.30;1.07;;;;;;;7.77;73.95;153355.13;5100836;28;20460;-86
2024/02/26 02:49:51;;;;;;;1.90;1.27;;;;;;;7.74;77.66;153347.38;5080055;28;20479;-85
2024/02/26 02:52:17;;;;;;;1.63;1.20;;;;;;;7.73;79.33;153344.81;5093129;28;20448;-86
2024/02/26 02:54:46;;;;;;;2.70;1.40;;;;;;;7.67;80.46;153330.59;5104286;28;20871;-86
2024/02/26 02:57:13;;;;;;;1.43;1.10;;;;;;;7.64;81.17;153321.56;5110876;28;20443;-85
2024/02/26 02:59:40;;;;;;;1.33;0.93;;;;;;;7.62;83.84;153316.41;5109386;28;20482;-85
2024/02/26 03:02:06;;;;;;;2.57;1.80;;;;;;;7.53;82.85;153294.44;5088353;28;20440;-85
2024/02/26 03:04:33;;;;;;;2.17;1.70;;;;;;;7.50;84.89;153286.66;5088879;28;20424;-85
2024/02/26 03:07:00;;;;;;;2.13;1.73;;;;;;;7.45;85.69;153273.75;5093096;28;20447;-86
2024/02/26 03:09:26;;;;;;;1.07;0.80;;;;;;;7.35;85.29;153249.25;5110567;28;20825;-86
2024/02/26 03:11:54;;;;;;;1.67;1.03;;;;;;;7.43;81.04;153267.31;5111648;28;20455;-86
2024/02/26 03:14:21;;;;;;;2.23;1.30;;;;;;;7.43;77.34;153267.31;5111676;28;20502;-86
2024/02/26 03:16:47;;;;;;;1.80;1.13;;;;;;;7.52;80.34;153290.56;5109659;28;20932;-86
2024/02/26 03:19:15;;;;;;;2.77;1.27;;;;;;;7.52;81.90;153291.81;5093182;28;20525;-86
2024/02/26 03:21:42;;;;;;;1.10;0.80;;;;;;;7.53;83.98;153294.44;5092572;28;20436;-86
2024/02/26 03:24:10;;;;;;;1.57;0.83;;;;;;;7.51;84.81;153289.28;5107060;27;20435;-86
2024/02/26 03:26:36;;;;;;;1.40;1.03;;;;;;;7.52;85.87;153290.56;5111044;28;20481;-85
2024/02/26 03:29:04;;;;;;;1.50;0.90;;;;;;;7.49;87.27;153282.81;5104872;28;20948;-85
2024/02/26 03:31:31;;;;;;;1.37;0.80;;;;;;;7.44;86.84;153269.91;5102348;28;20440;-85
2024/02/26 03:33:57;;;;;;;1.50;1.00;;;;;;;7.48;87.28;153280.22;5110798;28;20436;-85
2024/02/26 03:36:24;;;;;;;1.77;1.10;;;;;;;7.46;87.09;153276.34;5110015;28;20949;-86
2024/02/26 03:38:50;;;;;;;1.50;1.30;;;;;;;7.46;87.91;153275.06;5091944;28;20428;-85
2024/02/26 03:41:17;;;;;;;2.17;1.43;;;;;;;7.35;81.40;153249.25;5088802;28;20457;-85
2024/02/26 03:43:45;;;;;;;1.20;0.70;;;;;;;7.43;77.72;153267.31;5079860;28;20441;-85
2024/02/26 03:46:13;;;;;;;1.67;1.00;;;;;;;7.53;76.31;153294.44;5110185;28;20482;-85
2024/02/26 03:48:40;;;;;;;1.10;0.83;;;;;;;7.59;76.34;153308.63;5110298;28;20463;-85
2024/02/26 03:51:07;;;;;;;1.27;1.10;;;;;;;7.61;76.36;153315.09;5100900;28;20444;-85
2024/02/26 03:53:33;;;;;;;2.40;1.70;;;;;;;7.61;76.33;153315.09;5090048;28;20437;-85
2024/02/26 03:56:04;;;;;;;2.10;1.50;;;;;;;7.62;80.81;153317.69;5082470;28;20440;-85
2024/02/26 03:58:30;;;;;;;1.57;1.30;;;;;;;7.55;79.27;153299.59;5109882;28;20439;-85
2024/02/26 04:00:57;;;;;;;1.43;1.10;;;;;;;7.55;79.67;153298.28;5095736;28;20496;-84
2024/02/26 04:03:25;;;;;;;1.90;1.40;;;;;;;7.53;78.49;153293.13;5071993;28;20544;-85
2024/02/26 04:05:52;;;;;;;1.63;1.33;;;;;;;7.53;78.77;153293.13;5067300;28;20460;-85
2024/02/26 04:08:19;;;;;;;2.30;1.20;;;;;;;7.53;76.10;153293.13;5089459;28;20438;-85
2024/02/26 04:10:45;;;;;;;2.00;1.50;;;;;;;7.63;76.03;153320.25;5079615;28;20452;-84
2024/02/26 04:13:12;;;;;;;2.27;1.30;;;;;;;7.63;76.66;153320.25;5089693;28;20442;-85
2024/02/26 04:15:38;;;;;;;1.67;1.47;;;;;;;7.62;80.78;153316.41;5090120;28;20441;-85
2024/02/26 04:18:05;;;;;;;2.40;1.50;;;;;;;7.56;82.91;153300.88;5086182;28;20456;-85
2024/02/26 04:20:33;;;;;;;2.30;1.80;;;;;;;7.47;79.88;153277.63;5087401;28;20456;-85
2024/02/26 04:22:59;;;;;;;2.67;1.83;;;;;;;7.52;77.37;153290.56;5071794;28;20453;-85
2024/02/26 04:25:29;;;;;;;2.13;1.80;;;;;;;7.49;76.26;153282.81;5073853;28;20865;-85
2024/02/26 04:27:55;;;;;;;2.80;1.90;;;;;;;7.50;76.46;153286.66;5081358;28;21006;-84
2024/02/26 04:30:22;;;;;;;1.77;1.40;;;;;;;7.48;76.90;153281.50;5088851;28;20465;-85
2024/02/26 04:32:48;;;;;;;2.33;1.90;;;;;;;7.49;78.35;153282.81;5088672;28;20432;-85
2024/02/26 04:35:15;;;;;;;1.87;1.70;;;;;;;7.50;79.73;153285.38;5102715;28;20468;-85
2024/02/26 04:37:43;;;;;;;3.03;2.67;;;;;;;7.45;80.26;153272.47;5089145;28;20437;-85
2024/02/26 04:40:10;;;;;;;2.50;2.30;;;;;;;7.45;79.42;153273.75;5070930;28;20460;-84
2024/02/26 04:42:37;;;;;;;2.83;2.23;;;;;;;7.42;79.45;153266.00;5089894;28;20532;-85
2024/02/26 04:45:04;;;;;;;2.80;2.50;;;;;;;7.40;78.06;153259.53;5087837;28;20461;-85
2024/02/26 04:47:30;;;;;;;2.53;2.33;;;;;;;7.34;76.42;153245.34;5062996;28;20458;-85
2024/02/26 04:49:57;;;;;;;4.33;3.93;;;;;;;7.34;78.40;153245.34;5081503;28;20479;-85
2024/02/26 04:52:23;;;;;;;2.97;2.67;;;;;;;7.36;79.58;153251.78;5089747;28;20454;-85
2024/02/26 04:54:51;;;;;;;3.10;2.07;;;;;;;7.29;79.55;153233.72;5089836;28;20433;-85
2024/02/26 04:57:18;;;;;;;3.80;3.50;;;;;;;7.16;80.03;153200.16;5088424;28;20914;-85
2024/02/26 04:59:45;;;;;;;4.57;3.40;;;;;;;7.10;80.81;153184.66;5088940;28;20554;-85
2024/02/26 05:02:12;;;;;;;4.00;3.60;;;;;;;7.10;82.29;153184.66;5089230;28;20496;-85
2024/02/26 05:04:38;;;;;;;4.10;3.70;;;;;;;7.04;81.24;153169.16;5088744;28;20452;-84
2024/02/26 05:07:05;;;;;;;3.63;3.23;;;;;;;7.02;81.26;153164.00;5088462;28;20453;-84
2024/02/26 05:09:32;;;;;;;3.93;3.27;;;;;;;7.00;81.69;153158.84;5089198;28;20526;-85
2024/02/26 05:12:01;;;;;;;4.90;4.40;;;;;;;7.00;82.16;153157.53;5060104;28;20896;-85
2024/02/26 05:14:27;;;;;;;5.03;4.27;;;;;;;7.02;82.50;153162.69;5086011;28;20527;-84
2024/02/26 05:16:54;;;;;;;6.70;4.10;;;;;;;7.00;82.08;153158.84;5089155;28;21049;-84
2024/02/26 05:19:20;;;;;;;4.13;3.67;;;;;;;7.01;81.56;153161.44;5071520;28;20433;-84
2024/02/26 05:21:49;;;;;;;3.97;3.30;;;;;;;7.04;82.18;153167.91;5092107;28;21016;-85
2024/02/26 05:24:17;;;;;;;4.30;3.87;;;;;;;7.02;82.59;153162.69;5076245;28;20449;-84
2024/02/26 05:26:43;;;;;;;11.30;10.40;;;;;;;7.01;80.29;153160.13;5090687;28;20453;-85
2024/02/26 05:29:11;;;;;;;6.83;6.20;;;;;;;7.03;79.80;153166.59;5073552;28;20476;-84
2024/02/26 05:31:38;;;;;;;7.50;4.53;;;;;;;7.04;79.77;153167.91;5074246;28;20459;-85
2024/02/26 05:34:04;;;;;;;6.00;5.40;;;;;;;7.04;79.07;153169.16;5092952;28;20425;-85
2024/02/26 05:36:33;;;;;;;3.23;2.93;;;;;;;7.04;78.17;153169.16;5073934;28;20469;-85
2024/02/26 05:39:03;;;;;;;3.90;3.07;;;;;;;7.05;79.71;153171.75;5079456;28;20528;-84
2024/02/26 05:41:30;;;;;;;4.47;4.07;;;;;;;7.06;79.69;153174.34;5091702;28;20560;-85
2024/02/26 05:43:57;;;;;;;3.83;3.30;;;;;;;7.11;81.59;153187.25;5092428;28;20448;-85
2024/02/26 05:46:25;;;;;;;4.10;3.20;;;;;;;7.15;83.80;153196.25;5073232;28;20889;-86
2024/02/26 05:48:53;;;;;;;4.40;3.17;;;;;;;7.15;86.15;153197.56;5091768;28;20440;-85
2024/02/26 05:51:19;;;;;;;2.93;2.70;;;;;;;7.12;86.57;153189.81;5074345;28;20506;-86
2024/02/26 05:53:46;;;;;;;3.90;3.33;;;;;;;7.13;87.80;153192.41;5093075;28;20503;-86
2024/02/26 05:56:13;;;;;;;3.70;2.70;;;;;;;7.13;88.47;153191.09;5092497;28;20433;-86
2024/02/26 05:58:40;;;;;;;3.00;2.70;;;;;;;7.07;90.27;153176.91;5056041;28;20469;-86
2024/02/26 06:01:06;;;;;;;3.60;2.63;;;;;;;7.00;89.78;153158.84;5106616;28;20942;-86
2024/02/26 06:03:34;;;;;;;3.70;2.93;;;;;;;7.00;90.46;153157.53;5097159;27;20436;-86
2024/02/26 06:06:02;;;;;;;2.77;2.43;;;;;;;6.99;91.73;153156.25;5102554;28;20444;-86
2024/02/26 06:08:29;;;;;;;4.07;3.10;;;;;;;6.98;92.11;153153.69;5105220;28;20440;-86
2024/02/26 06:10:55;;;;;;;4.00;3.13;;;;;;;7.00;93.43;153158.84;5113516;27;20980;-86
2024/02/26 06:13:21;;;;;;;4.17;3.00;;;;;;;6.98;93.92;153153.69;5085465;28;20448;-87
2024/02/26 06:15:48;;;;;;;4.60;2.70;;;;;;;6.95;94.78;153145.94;5115501;27;20448;-87
2024/02/26 06:18:15;;;;;;;3.40;2.90;;;;;;;6.92;94.61;153138.19;5116987;27;20902;-87
2024/02/26 06:20:43;;;;;;;2.90;2.20;;;;;;;6.89;94.17;153129.13;5111384;27;20447;-88
2024/02/26 06:23:10;;;;;;;2.73;2.50;;;;;;;6.90;94.77;153131.72;5099559;28;20513;-87
2024/02/26 06:25:36;;;;;;;4.03;2.60;;;;;;;6.90;95.27;153133.03;5120198;27;20475;-87
2024/02/26 06:28:03;;;;;;;3.23;2.53;;;;;;;6.90;95.18;153133.03;5099002;28;20440;-88
2024/02/26 06:30:29;;;;;;;2.70;2.50;;;;;;;6.84;95.71;153117.53;5133136;27;20569;-88
2024/02/26 06:32:56;;;;;;;2.80;1.87;;;;;;;6.88;95.29;153126.59;5121692;27;20448;-87
2024/02/26 06:35:22;;;;;;;2.63;2.27;;;;;;;6.92;95.62;153138.19;5118748;27;20436;-87
2024/02/26 06:37:52;;;;;;;3.00;2.17;;;;;;;6.90;95.12;153133.03;5081141;28;20498;-87
2024/02/26 06:40:19;;;;;;;2.80;2.23;;;;;;;6.93;94.45;153140.78;5098494;28;20825;-87
2024/02/26 06:42:46;;;;;;;3.70;2.60;;;;;;;6.95;94.86;153144.63;5106056;27;20493;-87
2024/02/26 06:45:12;;;;;;;2.60;2.40;;;;;;;6.93;94.49;153139.47;5113096;27;20434;-87
2024/02/26 06:47:39;;;;;;;2.80;2.60;;;;;;;6.83;93.36;153114.94;5103054;28;20780;-86
2024/02/26 06:50:06;;;;;;;4.33;3.10;;;;;;;6.80;90.62;153107.22;5110194;28;20475;-87
2024/02/26 06:52:32;;;;;;;4.30;3.10;;;;;;;6.81;88.58;153109.78;5111494;28;20527;-87
2024/02/26 06:55:00;;;;;;;3.27;2.30;;;;;;;6.90;90.82;153133.03;5088830;27;20988;-87
2024/02/26 06:57:26;;;;;;;3.20;2.77;;;;;;;6.96;92.26;153147.25;5101298;27;20509;-87
2024/02/26 06:59:55;;;;;;;2.60;2.40;;;;;;;6.98;92.96;153153.69;5094477;28;20871;-87
2024/02/26 07:02:22;;;;;;;2.70;2.50;;;;;;;6.95;91.96;153145.94;5094112;28;20446;-87
2024/02/26 07:04:49;;;;;;;2.90;2.23;;;;;;;7.04;92.23;153167.91;5083702;28;20453;-86
2024/02/26 07:07:17;;;;;;;3.07;2.53;;;;;;;7.08;92.37;153179.50;5089890;28;20433;-87
2024/02/26 07:09:44;;;;;;;3.27;2.90;;;;;;;7.12;93.84;153189.81;5094070;28;20534;-87
2024/02/26 07:12:12;;;;;;;3.77;2.50;;;;;;;7.12;93.97;153189.81;5089009;28;20457;-87
2024/02/26 07:14:43;;;;;;;3.87;3.30;;;;;;;7.15;94.45;153196.25;5086921;28;20457;-87
2024/02/26 07:17:09;;;;;;;4.33;3.70;;;;;;;7.15;94.94;153197.56;5090693;28;20510;-87
2024/02/26 07:19:36;;;;;;;5.60;3.53;;;;;;;7.23;94.00;153218.22;5088980;28;20526;-87
2024/02/26 07:22:03;;;;;;;3.57;3.27;;;;;;;7.28;93.83;153231.13;5088000;28;20540;-87
2024/02/26 07:24:29;;;;;;;3.23;2.90;;;;;;;7.31;93.81;153237.59;5088389;28;20526;-86
2024/02/26 07:26:56;;;;;;;4.27;3.00;;;;;;;7.35;94.53;153247.94;5103281;28;20457;-87
2024/02/26 07:29:23;;;;;;;2.20;2.00;;;;;;;7.38;94.72;153255.69;5085906;28;20465;-87
2024/02/26 07:31:50;;;;;;;3.90;2.50;;;;;;;7.34;94.24;153245.34;5081141;28;21070;-87
2024/02/26 07:34:17;;;;;;;2.50;2.20;;;;;;;7.29;93.15;153233.72;5091249;28;20449;-86
2024/02/26 07:36:44;;;;;;;2.50;2.30;;;;;;;7.32;91.94;153240.19;5088757;28;20463;-87
2024/02/26 07:39:11;;;;;;;3.47;2.50;;;;;;;7.31;90.60;153238.88;5100161;27;20465;-87
2024/02/26 07:41:38;;;;;;;3.13;2.73;;;;;;;7.35;89.77;153247.94;5090007;28;20479;-87
2024/02/26 07:44:05;;;;;;;3.37;2.80;;;;;;;7.41;89.50;153263.44;5096617;28;20448;-87
2024/02/26 07:46:33;;;;;;;3.30;2.90;;;;;;;7.49;90.26;153282.81;5109983;27;20469;-86
2024/02/26 07:48:59;;;;;;;3.33;2.50;;;;;;;7.44;89.17;153271.16;5109897;27;20817;-86
2024/02/26 07:51:26;;;;;;;7.00;3.93;;;;;;;7.49;86.87;153284.13;5088392;28;20481;-87
2024/02/26 07:53:53;;;;;;;5.33;3.97;;;;;;;7.49;85.22;153282.81;5068484;28;20460;-86
2024/02/26 07:56:19;;;;;;;4.10;3.70;;;;;;;7.51;85.08;153287.97;5077438;28;20450;-86
2024/02/26 07:58:46;;;;;;;4.83;3.97;;;;;;;7.60;84.78;153311.25;5077802;28;20511;-86
2024/02/26 08:01:14;;;;;;;4.10;3.50;;;;;;;7.68;86.75;153331.84;5092708;28;20468;-87
2024/02/26 08:03:41;;;;;;;5.10;4.13;;;;;;;7.72;88.98;153342.22;5108941;27;25117;-86
2024/02/26 08:06:09;;;;;;;7.17;5.30;;;;;;;7.74;90.19;153347.38;5094795;28;20444;-86
2024/02/26 08:08:35;;;;;;;5.70;4.70;;;;;;;7.67;87.39;153329.31;5087216;28;20494;-86
2024/02/26 08:11:02;;;;;;;14.87;11.30;;;;;;;7.72;83.52;153342.22;5086957;28;20470;-86
2024/02/26 08:13:28;;;;;;;3.97;3.53;;;;;;;7.79;84.01;153360.28;5098611;28;20456;-86
2024/02/26 08:15:55;;;;;;;4.47;4.03;;;;;;;7.78;84.31;153358.97;5102734;28;20933;-86
2024/02/26 08:18:21;;;;;;;5.03;4.50;;;;;;;7.64;84.95;153321.56;5088942;28;20962;-86
2024/02/26 08:20:49;;;;;;;5.23;4.70;;;;;;;7.57;85.74;153303.47;5074315;28;20449;-86
2024/02/26 08:23:16;;;;;;;4.00;3.57;;;;;;;7.53;81.27;153293.13;5085908;28;20459;-85
2024/02/26 08:25:41;;;;;;;4.30;3.40;;;;;;;7.46;81.04;153275.06;5089147;28;20449;-86
2024/02/26 08:28:08;;;;;;;6.17;3.63;;;;;;;7.51;81.10;153287.97;5103333;28;20452;-85
2024/02/26 08:30:35;;;;;;;4.17;3.30;;;;;;;7.58;81.24;153307.34;5075429;28;20270;-86
2024/02/26 08:33:01;;;;;;;3.90;3.40;;;;;;;7.51;81.57;153289.28;5076830;28;20445;-86
2024/02/26 08:35:28;;;;;;;3.97;3.37;;;;;;;7.57;80.95;153303.47;5102785;28;20436;-86
2024/02/26 08:37:55;;;;;;;4.27;3.10;;;;;;;7.61;80.38;153315.09;5072210;28;20452;-86
2024/02/26 08:40:22;;;;;;;4.60;3.30;;;;;;;7.64;82.31;153321.56;5076222;28;20453;-86
2024/02/26 08:42:59;;;;;;;3.90;3.10;;;;;;;7.66;81.52;153326.72;5096224;28;20527;-86
2024/02/26 08:45:27;;;;;;;4.43;3.70;;;;;;;7.72;80.73;153342.22;5085914;28;20957;-86
2024/02/26 08:47:53;;;;;;;3.80;3.30;;;;;;;7.76;80.28;153352.53;5087540;28;20472;-86
2024/02/26 08:50:20;;;;;;;4.20;3.80;;;;;;;7.83;79.77;153371.94;5087419;28;20469;-86
2024/02/26 08:52:50;;;;;;;5.53;4.17;;;;;;;7.92;78.55;153393.88;5095334;28;20801;-85
2024/02/26 08:55:18;;;;;;;5.10;3.30;;;;;;;8.01;78.34;153415.84;5096317;28;20482;-86
2024/02/26 08:57:44;;;;;;;4.40;3.73;;;;;;;8.06;79.63;153430.06;5080133;28;20468;-86
2024/02/26 09:00:12;;;;;;;3.90;3.13;;;;;;;8.07;78.47;153432.66;5101811;28;20495;-86
2024/02/26 09:02:39;;;;;;;4.50;3.50;;;;;;;8.13;76.44;153448.13;5091296;28;20464;-86
2024/02/26 09:05:06;;;;;;;4.20;3.40;;;;;;;8.19;76.01;153463.66;5090014;28;20945;-85
2024/02/26 09:07:33;;;;;;;4.23;3.50;;;;;;;8.28;74.33;153485.69;5091733;28;20445;-85
2024/02/26 09:10:00;;;;;;;3.97;3.30;;;;;;;8.30;79.11;153492.16;5092569;28;20451;-85
2024/02/26 09:12:28;;;;;;;4.40;4.00;;;;;;;8.27;79.86;153484.41;5100722;28;21244;-86
2024/02/26 09:14:56;;;;;;;4.47;3.30;;;;;;;8.26;78.43;153480.50;5096811;28;20467;-85
2024/02/26 09:17:22;;;;;;;4.17;2.73;;;;;;;8.30;76.93;153492.16;5111932;28;20544;-86
2024/02/26 09:19:49;;;;;;;3.87;3.30;;;;;;;8.34;77.00;153501.22;5106011;28;20537;-85
2024/02/26 09:22:15;;;;;;;2.60;2.40;;;;;;;8.35;76.70;153505.06;5115357;27;20453;-85
2024/02/26 09:24:42;;;;;;;2.90;2.57;;;;;;;8.38;75.38;153512.84;5103090;28;20460;-85
2024/02/26 09:27:08;;;;;;;4.50;3.77;;;;;;;8.43;74.60;153524.47;5094015;28;20491;-85
2024/02/26 09:29:40;;;;;;;5.57;3.30;;;;;;;8.51;75.89;153546.44;5110887;27;20457;-85
2024/02/26 09:32:07;;;;;;;4.90;3.47;;;;;;;8.53;76.81;153551.59;5091563;28;20467;-85
2024/02/26 09:34:34;;;;;;;6.40;3.63;;;;;;;8.63;76.79;153574.88;5096816;28;20461;-85
2024/02/26 09:37:00;;;;;;;4.87;3.83;;;;;;;8.61;77.40;153570.97;5091618;28;20958;-85
2024/02/26 09:39:27;;;;;;;5.30;4.50;;;;;;;8.65;78.33;153580.03;5090852;28;20852;-85
2024/02/26 09:41:54;;;;;;;4.10;3.70;;;;;;;8.72;78.59;153598.13;5084904;28;20820;-85
2024/02/26 09:44:21;;;;;;;7.13;4.60;;;;;;;8.77;78.12;153612.34;5095506;28;20923;-85
2024/02/26 09:46:50;;;;;;;6.17;4.83;;;;;;;8.80;78.21;153620.13;5096858;28;20452;-85
2024/02/26 09:49:17;;;;;;;5.10;3.67;;;;;;;8.81;77.51;153621.41;5092659;28;20446;-85
2024/02/26 09:51:44;;;;;;;4.90;3.47;;;;;;;8.81;76.99;153621.41;5101387;28;20477;-86
2024/02/26 09:54:11;;;;;;;5.20;3.70;;;;;;;8.88;76.26;153639.50;5100949;28;20575;-85
2024/02/26 09:56:40;;;;;;;3.93;3.60;;;;;;;8.93;75.92;153652.44;5087439;28;20552;-85
2024/02/26 09:59:07;;;;;;;6.67;5.30;;;;;;;8.93;75.84;153653.72;5104973;27;20461;-86
2024/02/26 10:01:34;;;;;;;5.90;3.97;;;;;;;8.98;76.76;153665.34;5102623;28;20489;-85
2024/02/26 10:04:02;;;;;;;5.50;3.60;;;;;;;9.11;78.02;153698.97;5089834;28;20460;-86
2024/02/26 10:06:29;;;;;;;3.77;3.40;;;;;;;9.22;77.27;153726.13;5081481;28;20456;-86
2024/02/26 10:08:58;;;;;;;3.60;3.30;;;;;;;9.27;75.39;153740.38;5097382;28;20456;-85
2024/02/26 10:11:25;;;;;;;4.47;3.57;;;;;;;9.32;74.75;153753.31;5099275;28;20461;-85
2024/02/26 10:13:51;;;;;;;3.67;3.27;;;;;;;9.42;75.52;153779.22;5097026;28;20807;-86
2024/02/26 10:16:18;;;;;;;4.13;3.73;;;;;;;9.52;74.82;153803.78;5091708;28;20517;-85
2024/02/26 10:18:48;;;;;;;5.30;3.50;;;;;;;9.55;75.12;153812.84;5097333;28;20458;-85
2024/02/26 10:21:18;;;;;;;3.37;3.07;;;;;;;9.60;74.99;153825.78;5089745;28;20460;-85
2024/02/26 10:23:45;;;;;;;2.90;2.53;;;;;;;9.57;69.44;153816.69;5077159;28;20449;-86
2024/02/26 10:26:13;;;;;;;3.23;2.60;;;;;;;9.60;68.30;153824.47;5088931;28;21009;-85
2024/02/26 10:28:40;;;;;;;3.20;2.70;;;;;;;9.61;69.06;153827.06;5092961;28;20459;-85
2024/02/26 10:31:06;;;;;;;3.37;2.70;;;;;;;9.56;69.15;153814.09;5106725;27;20542;-85
2024/02/26 10:33:35;;;;;;;3.23;2.90;;;;;;;9.65;70.19;153838.72;5088204;28;20464;-85
2024/02/26 10:36:02;;;;;;;4.40;3.30;;;;;;;9.74;71.52;153861.97;5084097;28;20476;-85
2024/02/26 10:38:30;;;;;;;4.33;3.70;;;;;;;9.84;69.74;153885.28;5103666;27;20471;-86
2024/02/26 10:40:56;;;;;;;3.80;2.90;;;;;;;9.82;69.32;153882.69;5087531;28;20870;-85
2024/02/26 10:43:23;;;;;;;3.40;2.83;;;;;;;9.86;69.50;153890.44;5092922;28;20856;-85
2024/02/26 10:45:50;;;;;;;3.80;3.00;;;;;;;9.85;69.54;153889.16;5086568;28;20461;-85
2024/02/26 10:48:17;;;;;;;3.80;3.40;;;;;;;9.89;69.30;153898.22;5081581;28;20453;-85
2024/02/26 10:50:44;;;;;;;4.30;3.30;;;;;;;9.93;70.12;153909.84;5091989;28;20549;-85
2024/02/26 10:53:15;;;;;;;2.73;2.33;;;;;;;10.00;71.17;153928.00;5084846;28;20923;-85
2024/02/26 10:55:44;;;;;;;3.83;3.43;;;;;;;10.04;69.96;153937.03;5092056;28;21403;-86
2024/02/26 10:58:11;;;;;;;2.63;1.80;;;;;;;10.09;69.04;153949.97;5095468;28;20535;-85
2024/02/26 11:00:39;;;;;;;2.07;1.83;;;;;;;10.15;68.17;153966.88;5106714;27;20471;-86
2024/02/26 11:03:07;;;;;;;1.97;1.70;;;;;;;10.29;67.71;154003.13;5094158;28;20445;-86
2024/02/26 11:05:34;;;;;;;2.33;1.83;;;;;;;10.37;66.47;154022.53;5101928;27;20455;-85
2024/02/26 11:08:01;;;;;;;3.90;1.80;;;;;;;10.42;65.92;154035.47;5094240;28;20451;-86
2024/02/26 11:10:30;;;;;;;6.20;1.90;;;;;;;10.54;65.21;154066.53;5092928;27;20452;-85
2024/02/26 11:13:00;;;;;;;2.40;1.63;;;;;;;10.57;65.21;154074.31;5108768;28;20428;-85
2024/02/26 11:15:27;;;;;;;2.10;1.60;;;;;;;10.60;63.79;154080.78;5095277;27;20868;-85
2024/02/26 11:17:54;;;;;;;2.20;1.70;;;;;;;10.62;63.24;154085.94;5121603;27;21101;-85
2024/02/26 11:20:21;;;;;;;2.17;1.87;;;;;;;10.68;65.39;154102.78;5128084;27;20428;-86
2024/02/26 11:22:47;;;;;;;2.47;1.50;;;;;;;10.71;63.91;154110.56;5120878;27;20450;-86
2024/02/26 11:25:16;;;;;;;4.37;1.77;;;;;;;10.81;63.40;154136.47;5127447;27;20443;-85
2024/02/26 11:27:45;;;;;;;1.70;1.50;;;;;;;10.88;62.32;154153.31;5094461;28;20484;-86
2024/02/26 11:30:14;;;;;;;2.13;1.60;;;;;;;10.93;62.38;154167.53;5131949;27;20835;-85